Time;durP1;ratioP1;P1;durP2;ratioP2;P2;SDS_P1;SDS_P2;PMS_P1;PMS_P2;Temp;Humidity;BMP_temperature;BMP_pressure;BME280_temperature;BME280_humidity;BME280_pressure;Samples;Min_cycle;Max_cycle;Signal;HPM_P1;HPM_P2
2022/11/11 00:03:53;;;;;;;23.88;14.95;;;;;;;10.25;100.00;102726.81;10538677;28;20032;-71
2022/11/11 00:08:53;;;;;;;21.17;14.27;;;;;;;10.19;100.00;102732.81;10540660;28;20043;-71
2022/11/11 00:13:54;;;;;;;24.65;17.77;;;;;;;10.22;100.00;102744.19;10539483;28;20468;-72
2022/11/11 00:29:39;;;;;;;28.52;15.95;;;;;;;10.02;100.00;102737.16;10538661;28;20048;-71
2022/11/11 00:34:39;;;;;;;35.50;20.02;;;;;;;10.00;100.00;102739.16;10539348;28;20028;-72
2022/11/11 00:39:40;;;;;;;26.48;18.42;;;;;;;9.97;100.00;102737.59;10547140;28;20036;-72
2022/11/11 00:44:40;;;;;;;21.90;16.77;;;;;;;9.92;100.00;102739.91;10546768;28;20024;-71
2022/11/11 00:54:59;;;;;;;28.90;18.90;;;;;;;9.85;100.00;102725.25;10545915;28;20406;-69
2022/11/11 00:59:59;;;;;;;28.30;22.10;;;;;;;9.94;100.00;102713.53;10546591;28;20035;-72
2022/11/11 01:05:00;;;;;;;41.67;22.23;;;;;;;9.88;100.00;102707.88;10548479;28;20028;-71
2022/11/11 01:10:00;;;;;;;26.42;18.05;;;;;;;9.86;100.00;102694.50;10528563;28;20582;-71
2022/11/11 01:15:01;;;;;;;34.00;18.92;;;;;;;9.85;100.00;102708.16;10545782;28;20129;-72
2022/11/11 01:20:01;;;;;;;23.02;17.90;;;;;;;9.84;100.00;102715.44;10544557;28;20067;-71
2022/11/11 01:25:01;;;;;;;36.45;24.20;;;;;;;9.85;100.00;102724.41;10545333;28;20062;-71
2022/11/11 01:30:02;;;;;;;25.77;17.10;;;;;;;9.82;100.00;102712.00;10544705;28;20048;-71
2022/11/11 01:35:03;;;;;;;29.40;20.35;;;;;;;9.85;100.00;102717.13;10545475;28;20035;-71
2022/11/11 01:40:03;;;;;;;38.63;22.92;;;;;;;9.81;100.00;102717.59;10544805;28;20043;-72
2022/11/11 01:45:42;;;;;;;29.30;20.67;;;;;;;9.81;100.00;102717.59;10545609;28;20085;-73
2022/11/11 01:50:42;;;;;;;33.00;22.90;;;;;;;9.79;100.00;102720.44;10545977;28;20115;-72
2022/11/11 01:55:43;;;;;;;31.67;21.98;;;;;;;9.77;100.00;102715.19;10544939;28;20020;-70
2022/11/11 02:00:43;;;;;;;37.30;23.40;;;;;;;9.76;100.00;102699.97;10543479;28;20115;-71
2022/11/11 02:05:46;;;;;;;32.70;22.42;;;;;;;9.73;100.00;102699.38;10544386;28;20085;-71
2022/11/11 02:10:47;;;;;;;32.42;22.17;;;;;;;9.72;100.00;102703.09;10541788;28;20131;-72
2022/11/11 02:15:47;;;;;;;30.40;21.80;;;;;;;9.73;100.00;102704.78;10541553;28;20020;-71
2022/11/11 02:20:47;;;;;;;34.72;20.50;;;;;;;9.69;100.00;102700.69;10543737;28;20085;-71
2022/11/11 02:25:48;;;;;;;37.95;21.15;;;;;;;9.72;100.00;102711.19;10540802;28;20047;-72
2022/11/11 02:30:48;;;;;;;31.95;21.83;;;;;;;9.73;100.00;102705.66;10507766;28;20052;-71
2022/11/11 02:35:56;;;;;;;31.27;22.02;;;;;;;9.75;100.00;102706.34;10538971;28;20028;-71
2022/11/11 02:46:15;;;;;;;33.53;21.80;;;;;;;9.79;100.00;102706.91;10540327;28;20036;-71
2022/11/11 02:51:16;;;;;;;36.25;18.25;;;;;;;9.82;100.00;102717.44;10541247;28;20035;-70
2022/11/11 02:57:05;;;;;;;33.22;21.45;;;;;;;9.81;100.00;102704.06;10538751;28;20123;-70
2022/11/11 03:01:36;;;;;;;32.40;23.58;;;;;;;9.80;100.00;102711.34;10539739;28;20040;-71
2022/11/11 03:06:37;;;;;;;43.53;22.50;;;;;;;9.84;100.00;102722.72;10538734;28;20495;-72
2022/11/11 03:11:37;;;;;;;35.05;22.80;;;;;;;9.85;100.00;102717.13;10541843;28;20414;-69
2022/11/11 03:21:57;;;;;;;37.08;22.20;;;;;;;9.89;100.00;102725.81;10538839;28;20040;-71
2022/11/11 03:26:58;;;;;;;36.10;22.58;;;;;;;9.96;100.00;102726.94;10500449;28;1085497;-71
2022/11/11 03:31:58;;;;;;;34.95;23.90;;;;;;;9.85;100.00;102722.53;10543883;28;20538;-72
2022/11/11 03:42:17;;;;;;;27.85;20.77;;;;;;;9.72;100.00;102709.34;10539530;28;20055;-71
2022/11/11 03:47:19;;;;;;;31.25;22.42;;;;;;;9.70;100.00;102722.19;10540165;28;20028;-71
2022/11/11 03:52:20;;;;;;;35.38;23.33;;;;;;;9.65;100.00;102718.22;10540172;28;20063;-71
2022/11/11 03:57:29;;;;;;;34.47;23.67;;;;;;;9.65;100.00;102738.00;10540645;28;20067;-71
2022/11/11 04:23:46;;;;;;;37.78;25.48;;;;;;;9.72;100.00;102744.50;10548150;28;20036;-71
2022/11/11 04:34:06;;;;;;;44.47;26.25;;;;;;;9.64;100.00;102720.06;10548284;28;20123;-72
2022/11/11 04:49:44;;;;;;;26.90;20.35;;;;;;;9.44;100.00;102712.97;10547079;28;20036;-72
2022/11/11 05:00:04;;;;;;;35.17;23.38;;;;;;;9.39;100.00;102718.84;10546040;28;20040;-70
2022/11/11 05:05:05;;;;;;;29.52;19.77;;;;;;;9.31;100.00;102706.03;10545539;28;20044;-71
2022/11/11 05:10:06;;;;;;;35.22;22.92;;;;;;;9.33;100.00;102711.31;10547070;28;20039;-71
2022/11/11 05:25:46;;;;;;;29.38;19.27;;;;;;;9.22;100.00;102723.16;10545043;28;20056;-70
2022/11/11 05:30:46;;;;;;;32.00;20.25;;;;;;;9.18;100.00;102734.38;10545264;28;20044;-70
2022/11/11 05:35:46;;;;;;;31.67;21.67;;;;;;;9.19;100.00;102741.47;10526792;28;20039;-71
2022/11/11 05:40:47;;;;;;;38.78;23.42;;;;;;;9.11;100.00;102742.19;10544559;28;20036;-71
2022/11/11 05:45:47;;;;;;;33.17;24.25;;;;;;;9.18;100.00;102739.78;10544795;28;20120;-71
2022/11/11 05:50:47;;;;;;;35.25;25.58;;;;;;;9.13;100.00;102728.56;10544262;28;20536;-71
2022/11/11 05:55:51;;;;;;;37.17;24.63;;;;;;;9.06;100.00;102726.44;10544648;28;20032;-71
2022/11/11 06:00:51;;;;;;;34.80;23.42;;;;;;;9.15;100.00;102748.16;10543772;28;20032;-71
2022/11/11 06:05:52;;;;;;;39.03;23.27;;;;;;;9.21;100.00;102747.59;10543532;28;20060;-72
2022/11/11 06:10:52;;;;;;;31.20;24.00;;;;;;;9.24;100.00;102758.13;10544522;28;20047;-71
2022/11/11 06:15:54;;;;;;;35.05;25.33;;;;;;;9.31;100.00;102756.53;10543008;28;20039;-71
2022/11/11 06:20:55;;;;;;;36.10;27.02;;;;;;;9.39;100.00;102761.25;10543454;28;20044;-72
2022/11/11 06:26:15;;;;;;;36.58;23.67;;;;;;;9.39;100.00;102766.66;10542043;28;20048;-71
2022/11/11 06:31:24;;;;;;;40.63;24.27;;;;;;;9.42;100.00;102759.13;10542744;28;20545;-70
2022/11/11 06:36:24;;;;;;;33.60;22.73;;;;;;;9.34;100.00;102768.94;10540859;28;20173;-71
2022/11/11 06:41:25;;;;;;;31.52;23.38;;;;;;;9.29;100.00;102772.94;10542685;28;20426;-70
2022/11/11 06:46:25;;;;;;;38.65;24.63;;;;;;;9.17;100.00;102771.34;10524774;28;20475;-72
2022/11/11 06:51:26;;;;;;;44.33;25.10;;;;;;;9.24;100.00;102779.75;10539691;28;20035;-72
2022/11/11 06:56:26;;;;;;;47.63;25.58;;;;;;;9.20;100.00;102776.47;10540071;28;20032;-72
2022/11/11 07:01:26;;;;;;;38.65;24.15;;;;;;;9.13;100.00;102775.34;10541912;28;20040;-72
2022/11/11 07:06:27;;;;;;;36.53;24.17;;;;;;;9.11;100.00;102771.06;10540545;28;20039;-71
2022/11/11 07:11:27;;;;;;;37.05;24.90;;;;;;;9.05;100.00;102764.38;10522681;28;20062;-71
2022/11/11 07:16:27;;;;;;;33.70;23.63;;;;;;;9.14;100.00;102776.19;10539403;28;20031;-72
2022/11/11 07:21:28;;;;;;;37.55;26.88;;;;;;;9.18;100.00;102783.88;10540608;28;20493;-71
2022/11/11 07:26:28;;;;;;;36.90;26.08;;;;;;;9.15;100.00;102788.72;10539398;28;20110;-71
2022/11/11 07:31:29;;;;;;;45.13;27.60;;;;;;;9.15;100.00;102788.72;10540205;28;20043;-71
2022/11/11 07:36:29;;;;;;;32.03;22.13;;;;;;;9.22;100.00;102797.94;10539833;28;20032;-72
2022/11/11 07:41:30;;;;;;;31.95;25.08;;;;;;;9.29;100.00;102802.66;10539740;28;20070;-72
2022/11/11 07:46:30;;;;;;;33.63;25.38;;;;;;;9.32;100.00;102812.34;10539558;28;20363;-71
2022/11/11 07:51:30;;;;;;;37.17;25.38;;;;;;;9.38;100.00;102811.78;10539556;28;20047;-72
2022/11/11 07:56:31;;;;;;;41.72;25.52;;;;;;;9.45;100.00;102818.31;10539409;28;20035;-70
2022/11/11 08:01:31;;;;;;;39.38;26.27;;;;;;;9.59;100.00;102824.28;10539284;28;20088;-72
2022/11/11 08:06:32;;;;;;;45.72;28.27;;;;;;;9.65;100.00;102829.13;10538245;28;20090;-71
2022/11/11 08:16:51;;;;;;;41.05;29.95;;;;;;;9.75;100.00;102833.50;10538608;28;20040;-71
2022/11/11 08:21:52;;;;;;;48.33;31.02;;;;;;;9.84;100.00;102850.72;10538014;28;20028;-72
2022/11/11 08:26:53;;;;;;;43.13;32.10;;;;;;;9.90;100.00;102860.97;10538580;28;20052;-71
2022/11/11 08:31:53;;;;;;;49.60;33.67;;;;;;;9.96;100.00;102863.09;10539091;28;20036;-72
2022/11/11 08:36:53;;;;;;;47.63;31.02;;;;;;;10.05;100.00;102861.38;10539194;28;20370;-70
2022/11/11 08:41:54;;;;;;;41.75;31.50;;;;;;;10.07;100.00;102861.22;10538478;28;20086;-70
2022/11/11 08:46:54;;;;;;;49.35;34.10;;;;;;;10.07;100.00;102861.22;10538896;28;20039;-73
2022/11/11 08:51:54;;;;;;;50.75;31.00;;;;;;;10.22;100.00;102870.59;10538535;28;20040;-71
2022/11/11 08:56:55;;;;;;;42.25;29.65;;;;;;;10.24;100.00;102872.16;10542496;28;20070;-71
2022/11/11 09:01:55;;;;;;;42.60;30.67;;;;;;;10.32;100.00;102871.44;10546231;28;20426;-71
2022/11/11 09:06:56;;;;;;;40.83;26.38;;;;;;;10.44;100.00;102886.53;10544900;28;20065;-72
2022/11/11 09:11:56;;;;;;;40.03;29.48;;;;;;;10.58;100.00;102887.88;10546803;28;20128;-71
2022/11/11 09:16:56;;;;;;;39.17;25.95;;;;;;;10.63;100.00;102896.44;10545626;28;20411;-72
2022/11/11 09:21:57;;;;;;;39.00;24.15;;;;;;;10.87;100.00;102892.31;10546384;28;20044;-72
2022/11/11 09:26:57;;;;;;;35.15;25.77;;;;;;;10.91;100.00;102907.25;10544381;28;20068;-73
2022/11/11 09:31:58;;;;;;;41.00;27.08;;;;;;;11.01;100.00;102904.50;10544399;28;20092;-72
2022/11/11 09:36:58;;;;;;;34.78;25.55;;;;;;;10.97;100.00;102905.81;10545329;28;20078;-72
2022/11/11 09:42:07;;;;;;;33.88;23.20;;;;;;;11.04;100.00;102915.03;10525902;28;20115;-72
2022/11/11 09:47:17;;;;;;;37.75;21.58;;;;;;;10.91;100.00;102920.81;10545688;28;20549;-72
2022/11/11 09:52:21;;;;;;;41.75;20.17;;;;;;;10.91;100.00;102921.69;10544873;28;20057;-72
2022/11/11 09:57:43;;;;;;;31.17;21.88;;;;;;;11.03;100.00;102930.47;10543907;28;20055;-71
2022/11/11 10:02:49;;;;;;;38.08;23.17;;;;;;;10.93;100.00;102938.66;10544934;28;20028;-72
2022/11/11 10:07:51;;;;;;;34.80;24.25;;;;;;;11.08;100.00;102933.59;10524513;28;20039;-71
2022/11/11 10:12:57;;;;;;;33.10;21.33;;;;;;;11.35;100.00;102948.97;10543720;28;20024;-72
2022/11/11 10:18:19;;;;;;;33.50;20.30;;;;;;;11.29;100.00;102944.16;10542046;28;20396;-71
2022/11/11 10:23:34;;;;;;;31.17;21.52;;;;;;;11.26;100.00;102962.59;10541905;28;20035;-72
2022/11/11 10:28:36;;;;;;;41.63;25.38;;;;;;;11.30;100.00;102954.00;10527221;28;20052;-70
2022/11/11 10:33:50;;;;;;;35.70;22.58;;;;;;;11.47;100.00;102962.34;10541323;28;20120;-72
2022/11/11 10:39:01;;;;;;;31.38;21.80;;;;;;;11.50;100.00;102952.03;10524382;28;20035;-72
2022/11/11 10:44:01;;;;;;;35.05;23.42;;;;;;;11.52;100.00;102960.00;10540339;28;20032;-72
2022/11/11 10:49:05;;;;;;;37.00;21.10;;;;;;;11.88;100.00;102951.94;10542593;28;20067;-70
2022/11/11 10:54:09;;;;;;;37.22;21.10;;;;;;;11.92;100.00;102950.59;10541526;28;20032;-72
2022/11/11 10:59:16;;;;;;;23.40;18.60;;;;;;;12.10;100.00;102946.00;10506550;28;20020;-71
2022/11/11 11:04:28;;;;;;;20.90;18.60;;;;;;;11.90;100.00;102952.59;10539485;28;20036;-72
2022/11/11 11:09:34;;;;;;;33.05;24.00;;;;;;;11.73;100.00;102947.00;10523806;28;20036;-72
2022/11/11 11:14:36;;;;;;;39.88;23.25;;;;;;;11.96;100.00;102939.25;10539129;28;20392;-72
2022/11/11 11:19:36;;;;;;;38.45;20.67;;;;;;;12.17;100.00;102947.06;10539912;28;20375;-72
2022/11/11 11:24:37;;;;;;;35.17;21.45;;;;;;;12.39;100.00;102942.13;10539848;28;20032;-71
2022/11/11 11:29:41;;;;;;;21.63;19.08;;;;;;;12.11;100.00;102934.13;10523944;28;20094;-71
2022/11/11 11:34:52;;;;;;;23.25;16.83;;;;;;;12.27;100.00;102933.38;10538900;28;20056;-72
2022/11/11 11:40:00;;;;;;;29.45;16.88;;;;;;;12.41;100.00;102943.69;10523567;28;20081;-72
2022/11/11 11:45:21;;;;;;;22.83;15.90;;;;;;;12.66;100.00;102922.91;10539345;28;20035;-71
2022/11/11 11:50:32;;;;;;;18.48;13.15;;;;;;;13.13;100.00;102933.34;10538971;28;20028;-72
2022/11/11 11:55:38;;;;;;;17.92;13.75;;;;;;;13.14;100.00;102934.19;10538839;28;20048;-72
2022/11/11 12:00:58;;;;;;;18.70;12.30;;;;;;;13.29;100.00;102935.28;10537809;28;20036;-72
2022/11/11 12:06:04;;;;;;;15.10;11.60;;;;;;;13.57;100.00;102927.69;10539154;28;20356;-72
2022/11/11 12:11:11;;;;;;;16.83;12.70;;;;;;;13.95;100.00;102930.81;10539645;28;20024;-72
2022/11/11 12:16:34;;;;;;;19.10;12.00;;;;;;;13.78;100.00;102935.38;10538957;28;20050;-70
2022/11/11 12:21:41;;;;;;;17.65;11.02;;;;;;;13.70;100.00;102928.06;10522649;28;20469;-72
2022/11/11 12:26:48;;;;;;;11.93;10.00;;;;;;;13.99;100.00;102925.84;10541431;28;20075;-72
2022/11/11 12:31:51;;;;;;;;;;;;;;;14.38;100.00;102936.88;10546852;28;20115;-73
2022/11/11 12:37:19;;;;;;;11.48;9.25;;;;;;;14.38;100.00;102936.88;10546232;28;19959;-72
2022/11/11 12:42:54;;;;;;;14.60;10.60;;;;;;;14.55;100.00;102935.88;10547341;28;20047;-73
2022/11/11 12:48:02;;;;;;;11.82;8.98;;;;;;;14.21;100.00;102930.59;10547143;28;20054;-71
2022/11/11 12:53:05;;;;;;;14.20;8.63;;;;;;;14.30;100.00;102929.56;10528848;28;20031;-72
2022/11/11 12:58:27;;;;;;;12.75;8.77;;;;;;;14.26;100.00;102914.56;10546889;28;20482;-72
2022/11/11 13:03:40;;;;;;;10.98;9.25;;;;;;;13.86;100.00;102929.09;10546266;28;20028;-70
2022/11/11 13:08:49;;;;;;;17.98;8.32;;;;;;;13.53;100.00;102926.34;10545868;28;20032;-71
2022/11/11 13:14:44;;;;;;;10.52;7.55;;;;;;;13.23;100.00;102925.03;10546295;28;20351;-72
2022/11/11 13:19:53;;;;;;;11.90;8.38;;;;;;;13.25;100.00;102918.44;10456511;28;20047;-72
2022/11/11 13:24:54;;;;;;;8.65;7.78;;;;;;;13.28;100.00;102917.28;10544779;28;20036;-71
2022/11/11 13:30:16;;;;;;;9.70;8.23;;;;;;;13.25;100.00;102915.72;10546357;28;20102;-71
2022/11/11 13:35:39;;;;;;;11.15;7.55;;;;;;;13.23;100.00;102920.44;10545545;28;20032;-73
2022/11/11 13:40:41;;;;;;;10.15;7.50;;;;;;;13.14;100.00;102931.47;10544509;28;20081;-71
2022/11/11 13:45:42;;;;;;;12.13;8.00;;;;;;;12.82;100.00;102927.59;10527273;28;20035;-72
2022/11/11 13:50:42;;;;;;;10.32;8.65;;;;;;;12.59;100.00;102927.31;10526463;28;20428;-73
2022/11/11 13:55:43;;;;;;;7.60;5.38;;;;;;;12.50;100.00;102923.69;10547995;28;20051;-71
2022/11/11 14:00:44;;;;;;;15.50;8.55;;;;;;;12.65;100.00;102914.94;10529704;28;20036;-72
2022/11/11 14:05:44;;;;;;;10.35;6.90;;;;;;;12.60;100.00;102912.69;10545554;28;20044;-71
2022/11/11 14:10:53;;;;;;;10.70;7.60;;;;;;;12.50;100.00;102912.81;10546508;28;20024;-70
2022/11/11 14:15:53;;;;;;;16.65;8.10;;;;;;;12.30;100.00;102914.91;10545280;28;20060;-72
2022/11/11 14:20:54;;;;;;;11.20;7.72;;;;;;;12.32;100.00;102918.31;10526991;28;20467;-73
2022/11/11 14:26:12;;;;;;;12.13;7.82;;;;;;;12.26;100.00;102918.13;10542772;28;20052;-72
2022/11/11 14:31:13;;;;;;;15.95;7.85;;;;;;;12.25;100.00;102917.25;10542693;28;20028;-72
2022/11/11 14:36:21;;;;;;;9.57;5.82;;;;;;;12.19;100.00;102919.72;10542637;28;20103;-71
2022/11/11 14:41:39;;;;;;;10.13;6.10;;;;;;;12.10;100.00;102932.44;10541819;28;20348;-70
2022/11/11 14:47:02;;;;;;;7.78;5.53;;;;;;;12.04;100.00;102927.63;10542111;28;20063;-72
2022/11/11 14:52:02;;;;;;;7.15;6.50;;;;;;;12.00;100.00;102926.25;10542040;28;20046;-71
2022/11/11 14:57:06;;;;;;;7.07;5.75;;;;;;;11.93;100.00;102925.13;10540140;28;20024;-71
2022/11/11 15:02:12;;;;;;;9.52;6.03;;;;;;;11.86;100.00;102920.34;10523445;28;20032;-72
2022/11/11 15:07:39;;;;;;;18.88;7.38;;;;;;;11.77;100.00;102923.09;10523836;28;20027;-71
2022/11/11 15:13:18;;;;;;;6.10;5.53;;;;;;;11.61;100.00;102919.25;10530930;28;20044;-70
2022/11/11 15:18:24;;;;;;;14.32;5.63;;;;;;;11.52;100.00;102916.59;10441655;28;20467;-71
2022/11/11 15:23:38;;;;;;;10.40;5.90;;;;;;;11.34;100.00;102920.16;10539964;28;20028;-71
2022/11/11 15:28:52;;;;;;;8.48;6.15;;;;;;;11.26;100.00;102922.75;10522319;28;20554;-71
2022/11/11 15:34:24;;;;;;;10.63;6.13;;;;;;;11.18;100.00;102941.66;10524850;28;20024;-72
2022/11/11 15:39:33;;;;;;;14.45;5.68;;;;;;;11.04;100.00;102939.44;10540210;28;20043;-71
2022/11/11 15:44:33;;;;;;;9.00;6.28;;;;;;;11.01;100.00;102939.75;10538418;28;20032;-71
2022/11/11 15:49:37;;;;;;;12.77;6.50;;;;;;;10.86;100.00;102937.53;10540666;28;20028;-71
2022/11/11 15:54:38;;;;;;;8.48;6.00;;;;;;;10.74;100.00;102932.47;10541211;28;20040;-71
2022/11/11 15:59:40;;;;;;;8.50;5.75;;;;;;;10.67;100.00;102937.63;10538982;28;20073;-72
2022/11/11 16:04:49;;;;;;;10.52;6.40;;;;;;;10.54;100.00;102946.09;10541147;28;20097;-71
2022/11/11 16:09:49;;;;;;;7.35;5.95;;;;;;;10.58;100.00;102941.22;10529644;28;20053;-71
2022/11/11 16:14:50;;;;;;;9.75;6.68;;;;;;;10.52;100.00;102958.91;10547879;28;20032;-71
2022/11/11 16:19:51;;;;;;;10.25;6.88;;;;;;;10.45;100.00;102953.22;10546789;28;20036;-72
2022/11/11 16:24:51;;;;;;;13.88;6.30;;;;;;;10.41;100.00;102959.94;10546437;28;20128;-71
2022/11/11 16:29:51;;;;;;;10.13;7.95;;;;;;;10.31;100.00;102963.69;10548942;28;20048;-71
2022/11/11 16:34:53;;;;;;;8.32;6.25;;;;;;;10.29;100.00;102961.09;10547413;28;20028;-72
2022/11/11 16:39:53;;;;;;;10.55;6.80;;;;;;;10.25;100.00;102955.09;10562685;28;20036;-71
2022/11/11 16:45:00;;;;;;;10.07;7.55;;;;;;;10.27;100.00;102954.97;10528742;28;20032;-71
2022/11/11 16:50:04;;;;;;;8.13;6.15;;;;;;;10.21;100.00;102955.50;10545635;28;20054;-71
2022/11/11 16:55:04;;;;;;;12.40;8.10;;;;;;;10.17;100.00;102954.09;10545220;28;20028;-70
2022/11/11 17:00:05;;;;;;;12.27;7.18;;;;;;;10.15;100.00;102956.97;10545293;28;20039;-71
2022/11/11 17:05:06;;;;;;;14.23;6.82;;;;;;;10.10;100.00;102961.94;10545285;28;20040;-71
2022/11/11 17:10:06;;;;;;;10.23;6.65;;;;;;;9.92;100.00;102952.84;10528978;28;20093;-71
2022/11/11 17:15:13;;;;;;;13.52;6.90;;;;;;;9.83;100.00;102954.56;10545712;28;20081;-71
2022/11/11 17:20:20;;;;;;;9.90;8.02;;;;;;;9.72;100.00;102954.69;10511473;28;20126;-71
2022/11/11 17:25:20;;;;;;;13.70;8.52;;;;;;;9.58;100.00;102947.00;10544032;28;20456;-70
2022/11/11 17:30:20;;;;;;;12.65;8.80;;;;;;;9.49;100.00;102952.25;10547654;28;20063;-71
2022/11/11 17:35:21;;;;;;;13.13;8.30;;;;;;;9.47;100.00;102953.38;10546227;28;20075;-70
2022/11/11 17:40:21;;;;;;;8.15;6.93;;;;;;;9.41;100.00;102957.50;10544995;28;20028;-71
2022/11/11 17:45:22;;;;;;;12.65;8.43;;;;;;;9.37;100.00;102947.94;10544885;28;20073;-71
2022/11/11 17:50:22;;;;;;;21.33;9.07;;;;;;;9.35;100.00;102952.66;10544365;28;20067;-72
2022/11/11 17:55:22;;;;;;;18.35;8.55;;;;;;;9.39;100.00;102967.59;10543992;28;20032;-71
2022/11/11 18:00:23;;;;;;;17.10;11.13;;;;;;;9.39;100.00;102958.66;10527585;28;20079;-70
2022/11/11 18:05:23;;;;;;;22.77;12.23;;;;;;;9.42;100.00;102971.88;10542824;28;20134;-70
2022/11/11 18:10:24;;;;;;;17.92;12.35;;;;;;;9.40;100.00;102973.88;10543080;28;20044;-70
2022/11/11 18:15:24;;;;;;;23.83;11.30;;;;;;;9.45;100.00;102985.13;10543476;28;20115;-71
2022/11/11 18:20:24;;;;;;;14.80;11.57;;;;;;;9.50;100.00;102980.13;10542828;28;20529;-70
2022/11/11 18:25:25;;;;;;;13.65;9.50;;;;;;;9.53;100.00;102975.31;10542778;28;20032;-71
2022/11/11 18:30:25;;;;;;;13.80;11.48;;;;;;;9.57;100.00;102984.00;10542227;28;20084;-72
2022/11/11 18:35:26;;;;;;;17.08;11.98;;;;;;;9.51;100.00;102982.72;10542684;28;20032;-71
2022/11/11 18:40:27;;;;;;;19.50;11.05;;;;;;;9.48;100.00;102988.41;10542617;28;20421;-71
2022/11/11 18:45:28;;;;;;;23.33;11.25;;;;;;;9.44;100.00;102984.25;10542951;28;20139;-71
2022/11/11 18:50:28;;;;;;;16.38;11.98;;;;;;;9.42;100.00;102983.56;10542736;28;20082;-71
2022/11/11 18:55:29;;;;;;;14.07;9.10;;;;;;;9.23;100.00;102978.09;10541375;28;20379;-71
2022/11/11 19:00:29;;;;;;;17.13;9.13;;;;;;;9.09;100.00;102998.22;10542900;28;20101;-72
2022/11/11 19:05:29;;;;;;;16.02;9.80;;;;;;;8.99;100.00;102990.09;10541726;28;20028;-71
2022/11/11 19:10:30;;;;;;;14.15;9.57;;;;;;;8.94;100.00;103005.88;10542489;28;20111;-69
2022/11/11 19:15:30;;;;;;;13.07;9.38;;;;;;;8.87;100.00;103020.03;10541066;28;20459;-70
2022/11/11 19:20:31;;;;;;;20.13;8.90;;;;;;;8.81;100.00;103010.66;10540334;28;20074;-71
2022/11/11 19:25:32;;;;;;;15.77;10.43;;;;;;;8.81;100.00;103010.66;10540868;28;20028;-72
2022/11/11 19:30:32;;;;;;;17.13;10.70;;;;;;;8.85;100.00;103006.69;10541771;28;20101;-71
2022/11/11 19:35:33;;;;;;;18.73;10.32;;;;;;;8.81;100.00;103010.66;10541096;28;20466;-69
2022/11/11 19:40:35;;;;;;;15.43;8.93;;;;;;;8.80;100.00;103008.91;10538836;28;20040;-73
2022/11/11 19:45:35;;;;;;;9.93;7.75;;;;;;;8.71;100.00;103024.09;10539702;28;20032;-71
2022/11/11 19:50:36;;;;;;;12.30;7.53;;;;;;;8.59;100.00;103034.09;10540191;28;20052;-71
2022/11/11 19:55:36;;;;;;;13.57;9.18;;;;;;;8.49;100.00;103026.94;10540140;28;20127;-71
2022/11/11 20:00:37;;;;;;;24.17;9.32;;;;;;;8.39;100.00;103048.44;10542283;28;20062;-71
2022/11/11 20:05:37;;;;;;;10.60;7.80;;;;;;;8.34;100.00;103045.25;10542726;28;20040;-71
2022/11/11 20:10:39;;;;;;;20.63;10.23;;;;;;;8.32;100.00;103047.22;10543091;28;20048;-71
2022/11/11 20:15:40;;;;;;;14.05;8.18;;;;;;;8.21;100.00;103040.03;10522724;28;20028;-71
2022/11/11 20:20:40;;;;;;;14.68;10.23;;;;;;;8.19;100.00;103041.16;10539770;28;20414;-73
2022/11/11 20:25:41;;;;;;;17.05;10.43;;;;;;;8.12;100.00;103052.47;10540662;28;20032;-69
2022/11/11 20:30:41;;;;;;;11.50;9.50;;;;;;;8.06;100.00;103050.28;10539553;28;20031;-72
2022/11/11 20:35:41;;;;;;;15.38;10.80;;;;;;;8.15;100.00;103045.97;10537570;28;20036;-72
2022/11/11 20:40:42;;;;;;;19.05;10.48;;;;;;;8.14;100.00;103053.19;10539303;28;20085;-72
2022/11/11 20:45:42;;;;;;;19.40;10.77;;;;;;;8.21;100.00;103061.63;10521821;28;20024;-72
2022/11/11 20:50:43;;;;;;;18.42;10.95;;;;;;;8.26;100.00;103074.72;10538610;28;20036;-71
2022/11/11 20:55:43;;;;;;;21.15;11.10;;;;;;;8.41;100.00;103080.72;10546727;28;20450;-72
2022/11/11 21:00:44;;;;;;;16.67;11.65;;;;;;;8.51;100.00;103071.69;10547748;28;20085;-72
2022/11/11 21:05:44;;;;;;;18.90;11.98;;;;;;;8.52;100.00;103084.25;10547821;28;20028;-72
2022/11/11 21:10:44;;;;;;;25.23;12.93;;;;;;;8.49;100.00;103073.69;10548306;28;20040;-73
2022/11/11 21:15:45;;;;;;;17.70;12.73;;;;;;;8.51;100.00;103078.94;10545188;28;20028;-73
2022/11/11 21:20:45;;;;;;;13.70;11.73;;;;;;;8.56;100.00;103074.88;10545490;28;20036;-71
2022/11/11 21:25:45;;;;;;;15.18;12.75;;;;;;;8.55;100.00;103075.88;10546130;28;20082;-73
2022/11/11 21:30:46;;;;;;;14.63;10.60;;;;;;;8.49;100.00;103072.84;10546371;28;20384;-73
2022/11/11 21:35:46;;;;;;;20.30;12.38;;;;;;;8.33;100.00;103078.66;10545071;28;20036;-72
2022/11/11 21:40:47;;;;;;;26.95;13.13;;;;;;;8.08;100.00;103069.91;10526943;28;20487;-73
2022/11/11 21:45:47;;;;;;;22.42;13.70;;;;;;;8.00;100.00;103085.00;10543318;28;20047;-67
2022/11/11 21:50:47;;;;;;;14.45;11.75;;;;;;;7.97;100.00;103087.97;10545563;28;20043;-71
2022/11/11 21:55:48;;;;;;;21.48;11.50;;;;;;;7.89;100.00;103088.59;10545729;28;20474;-71
2022/11/11 22:00:48;;;;;;;29.02;13.57;;;;;;;7.92;100.00;103093.75;10526857;28;20364;-72
2022/11/11 22:05:48;;;;;;;20.55;13.00;;;;;;;7.84;100.00;103090.81;10542459;28;20024;-71
2022/11/11 22:10:49;;;;;;;17.92;12.10;;;;;;;7.81;100.00;103096.44;10542773;28;20043;-72
2022/11/11 22:15:57;;;;;;;28.98;14.07;;;;;;;7.77;100.00;103095.84;10543327;28;20028;-72
2022/11/11 22:21:08;;;;;;;15.70;13.55;;;;;;;7.73;100.00;103088.16;10542992;28;20495;-71
2022/11/11 22:26:09;;;;;;;24.55;13.73;;;;;;;7.71;100.00;103095.50;10525063;28;20056;-71
2022/11/11 22:31:11;;;;;;;19.40;13.82;;;;;;;7.61;100.00;103090.84;10525654;28;20041;-70
2022/11/11 22:36:14;;;;;;;25.65;14.77;;;;;;;7.62;100.00;103092.56;10524687;28;20036;-70
2022/11/11 22:41:16;;;;;;;19.85;14.55;;;;;;;7.65;100.00;103092.31;10541549;28;20073;-72
2022/11/11 22:46:18;;;;;;;23.38;16.75;;;;;;;7.68;100.00;103100.16;10541268;28;20036;-72
2022/11/11 22:51:18;;;;;;;21.85;15.38;;;;;;;7.65;100.00;103095.00;10525650;28;20036;-71
2022/11/11 22:56:19;;;;;;;27.65;16.05;;;;;;;7.56;100.00;103094.88;10541229;28;20104;-71
2022/11/11 23:01:29;;;;;;;28.13;19.20;;;;;;;7.51;100.00;103102.50;10542260;28;20036;-71
2022/11/11 23:06:33;;;;;;;35.65;20.02;;;;;;;7.47;100.00;103099.22;10540196;28;20028;-70
2022/11/11 23:11:34;;;;;;;39.92;20.92;;;;;;;7.52;100.00;103096.97;10539957;28;20032;-72
2022/11/11 23:16:34;;;;;;;29.92;21.65;;;;;;;7.66;100.00;103109.38;10539879;28;20115;-71
2022/11/11 23:21:35;;;;;;;34.63;22.27;;;;;;;8.03;100.00;103106.34;10543124;28;20455;-72
2022/11/11 23:26:35;;;;;;;33.08;22.33;;;;;;;8.34;100.00;103101.94;10541673;28;20059;-73
2022/11/11 23:31:36;;;;;;;33.00;23.92;;;;;;;8.57;100.00;103103.59;10540047;28;20047;-71
2022/11/11 23:36:36;;;;;;;35.45;24.77;;;;;;;8.80;100.00;103107.03;10540413;28;20059;-71
2022/11/11 23:41:37;;;;;;;35.17;24.88;;;;;;;8.96;100.00;103108.41;10522833;28;20028;-72
2022/11/11 23:46:37;;;;;;;34.03;28.00;;;;;;;9.04;100.00;103109.47;10540200;28;20061;-72
2022/11/11 23:51:38;;;;;;;40.25;26.80;;;;;;;9.15;100.00;103102.25;10541889;28;20043;-72
2022/11/11 23:56:38;;;;;;;36.25;27.73;;;;;;;9.19;100.00;103096.47;10540415;28;20468;-72
